sensor_id;sensor_type;location;lat;lon;timestamp;P1;durP1;ratioP1;P2;durP2;ratioP2
7571;SDS011;3827;49.928;8.548;2022-07-09T00:00:08;3.10;;;1.90;;
7571;SDS011;3827;49.928;8.548;2022-07-09T00:02:35;2.10;;;1.90;;
7571;SDS011;3827;49.928;8.548;2022-07-09T00:05:04;1.65;;;1.55;;
7571;SDS011;3827;49.928;8.548;2022-07-09T00:07:31;2.97;;;1.90;;
7571;SDS011;3827;49.928;8.548;2022-07-09T00:09:58;2.80;;;1.98;;
7571;SDS011;3827;49.928;8.548;2022-07-09T00:12:25;1.90;;;1.70;;
7571;SDS011;3827;49.928;8.548;2022-07-09T00:14:51;2.60;;;1.50;;
7571;SDS011;3827;49.928;8.548;2022-07-09T00:17:18;1.90;;;1.45;;
7571;SDS011;3827;49.928;8.548;2022-07-09T00:19:46;1.85;;;1.70;;
7571;SDS011;3827;49.928;8.548;2022-07-09T00:22:14;1.95;;;1.85;;
7571;SDS011;3827;49.928;8.548;2022-07-09T00:24:41;1.93;;;1.70;;
7571;SDS011;3827;49.928;8.548;2022-07-09T00:27:08;1.50;;;1.40;;
7571;SDS011;3827;49.928;8.548;2022-07-09T00:29:35;1.27;;;1.27;;
7571;SDS011;3827;49.928;8.548;2022-07-09T00:32:02;1.50;;;1.40;;
7571;SDS011;3827;49.928;8.548;2022-07-09T00:34:29;1.77;;;1.60;;
7571;SDS011;3827;49.928;8.548;2022-07-09T00:36:56;3.78;;;2.03;;
7571;SDS011;3827;49.928;8.548;2022-07-09T00:39:24;1.95;;;1.75;;
7571;SDS011;3827;49.928;8.548;2022-07-09T00:42:00;2.13;;;1.92;;
7571;SDS011;3827;49.928;8.548;2022-07-09T00:44:28;2.97;;;1.92;;
7571;SDS011;3827;49.928;8.548;2022-07-09T00:46:55;3.72;;;1.73;;
7571;SDS011;3827;49.928;8.548;2022-07-09T00:49:22;2.13;;;1.75;;
7571;SDS011;3827;49.928;8.548;2022-07-09T00:51:49;2.22;;;2.03;;
7571;SDS011;3827;49.928;8.548;2022-07-09T00:54:16;2.40;;;2.20;;
7571;SDS011;3827;49.928;8.548;2022-07-09T00:56:44;2.08;;;1.88;;
7571;SDS011;3827;49.928;8.548;2022-07-09T00:59:12;2.47;;;1.90;;
7571;SDS011;3827;49.928;8.548;2022-07-09T01:01:39;4.03;;;2.25;;
7571;SDS011;3827;49.928;8.548;2022-07-09T01:04:06;3.20;;;2.65;;
7571;SDS011;3827;49.928;8.548;2022-07-09T01:06:33;2.60;;;2.40;;
7571;SDS011;3827;49.928;8.548;2022-07-09T01:09:00;4.85;;;2.65;;
7571;SDS011;3827;49.928;8.548;2022-07-09T01:11:27;3.67;;;2.50;;
7571;SDS011;3827;49.928;8.548;2022-07-09T01:13:56;2.65;;;2.45;;
7571;SDS011;3827;49.928;8.548;2022-07-09T01:16:29;3.92;;;2.40;;
7571;SDS011;3827;49.928;8.548;2022-07-09T01:18:57;2.50;;;2.28;;
7571;SDS011;3827;49.928;8.548;2022-07-09T01:21:25;3.35;;;2.45;;
7571;SDS011;3827;49.928;8.548;2022-07-09T01:23:52;2.40;;;2.10;;
7571;SDS011;3827;49.928;8.548;2022-07-09T01:26:19;2.63;;;2.20;;
7571;SDS011;3827;49.928;8.548;2022-07-09T01:28:46;3.40;;;2.10;;
7571;SDS011;3827;49.928;8.548;2022-07-09T01:31:14;4.38;;;2.45;;
7571;SDS011;3827;49.928;8.548;2022-07-09T01:33:41;2.00;;;1.90;;
7571;SDS011;3827;49.928;8.548;2022-07-09T01:36:09;2.10;;;2.00;;
7571;SDS011;3827;49.928;8.548;2022-07-09T01:38:37;2.50;;;1.85;;
7571;SDS011;3827;49.928;8.548;2022-07-09T01:41:04;1.80;;;1.70;;
7571;SDS011;3827;49.928;8.548;2022-07-09T01:43:31;2.53;;;2.10;;
7571;SDS011;3827;49.928;8.548;2022-07-09T01:45:58;2.55;;;2.10;;
7571;SDS011;3827;49.928;8.548;2022-07-09T01:48:26;2.35;;;2.05;;
7571;SDS011;3827;49.928;8.548;2022-07-09T01:50:53;2.47;;;2.20;;
7571;SDS011;3827;49.928;8.548;2022-07-09T01:53:20;2.10;;;2.00;;
7571;SDS011;3827;49.928;8.548;2022-07-09T01:55:49;3.22;;;2.17;;
7571;SDS011;3827;49.928;8.548;2022-07-09T01:58:15;4.15;;;2.60;;
7571;SDS011;3827;49.928;8.548;2022-07-09T02:00:43;3.53;;;2.42;;
7571;SDS011;3827;49.928;8.548;2022-07-09T02:03:10;4.97;;;2.47;;
7571;SDS011;3827;49.928;8.548;2022-07-09T02:05:37;2.97;;;2.50;;
7571;SDS011;3827;49.928;8.548;2022-07-09T02:08:04;2.42;;;2.20;;
7571;SDS011;3827;49.928;8.548;2022-07-09T02:10:31;3.70;;;2.70;;
7571;SDS011;3827;49.928;8.548;2022-07-09T02:12:59;3.07;;;2.43;;
7571;SDS011;3827;49.928;8.548;2022-07-09T02:15:26;4.47;;;2.60;;
7571;SDS011;3827;49.928;8.548;2022-07-09T02:17:53;3.90;;;3.00;;
7571;SDS011;3827;49.928;8.548;2022-07-09T02:20:20;2.33;;;2.13;;
7571;SDS011;3827;49.928;8.548;2022-07-09T02:22:47;3.05;;;2.50;;
7571;SDS011;3827;49.928;8.548;2022-07-09T02:25:14;4.25;;;2.30;;
7571;SDS011;3827;49.928;8.548;2022-07-09T02:27:41;4.32;;;2.42;;
7571;SDS011;3827;49.928;8.548;2022-07-09T02:30:10;3.67;;;2.67;;
7571;SDS011;3827;49.928;8.548;2022-07-09T02:32:37;3.20;;;2.60;;
7571;SDS011;3827;49.928;8.548;2022-07-09T02:35:04;2.60;;;2.40;;
7571;SDS011;3827;49.928;8.548;2022-07-09T02:37:32;2.83;;;2.58;;
7571;SDS011;3827;49.928;8.548;2022-07-09T02:40:00;2.65;;;2.40;;
7571;SDS011;3827;49.928;8.548;2022-07-09T02:42:27;2.55;;;2.22;;
7571;SDS011;3827;49.928;8.548;2022-07-09T02:44:54;3.00;;;2.33;;
7571;SDS011;3827;49.928;8.548;2022-07-09T02:47:22;2.87;;;2.50;;
7571;SDS011;3827;49.928;8.548;2022-07-09T02:49:49;2.78;;;2.40;;
7571;SDS011;3827;49.928;8.548;2022-07-09T02:52:15;3.15;;;2.63;;
7571;SDS011;3827;49.928;8.548;2022-07-09T02:54:42;3.00;;;2.35;;
7571;SDS011;3827;49.928;8.548;2022-07-09T02:57:09;2.83;;;2.47;;
7571;SDS011;3827;49.928;8.548;2022-07-09T02:59:37;4.18;;;2.50;;
7571;SDS011;3827;49.928;8.548;2022-07-09T03:02:04;3.65;;;2.78;;
7571;SDS011;3827;49.928;8.548;2022-07-09T03:04:32;3.67;;;2.95;;
7571;SDS011;3827;49.928;8.548;2022-07-09T03:06:59;3.58;;;2.80;;
7571;SDS011;3827;49.928;8.548;2022-07-09T03:09:26;3.58;;;2.65;;
7571;SDS011;3827;49.928;8.548;2022-07-09T03:11:52;3.78;;;2.80;;
7571;SDS011;3827;49.928;8.548;2022-07-09T03:14:19;4.15;;;2.80;;
7571;SDS011;3827;49.928;8.548;2022-07-09T03:16:46;7.65;;;3.20;;
7571;SDS011;3827;49.928;8.548;2022-07-09T03:19:13;10.25;;;3.67;;
7571;SDS011;3827;49.928;8.548;2022-07-09T03:21:41;3.75;;;3.08;;
7571;SDS011;3827;49.928;8.548;2022-07-09T03:24:08;4.70;;;2.92;;
7571;SDS011;3827;49.928;8.548;2022-07-09T03:26:35;4.57;;;2.90;;
7571;SDS011;3827;49.928;8.548;2022-07-09T03:29:02;3.33;;;3.03;;
7571;SDS011;3827;49.928;8.548;2022-07-09T03:31:29;2.80;;;2.58;;
7571;SDS011;3827;49.928;8.548;2022-07-09T03:33:55;5.03;;;2.85;;
7571;SDS011;3827;49.928;8.548;2022-07-09T03:36:22;3.70;;;3.00;;
7571;SDS011;3827;49.928;8.548;2022-07-09T03:38:50;3.75;;;3.25;;
7571;SDS011;3827;49.928;8.548;2022-07-09T03:41:17;3.38;;;2.42;;
7571;SDS011;3827;49.928;8.548;2022-07-09T03:43:44;5.90;;;3.17;;
7571;SDS011;3827;49.928;8.548;2022-07-09T03:46:11;3.20;;;2.90;;
7571;SDS011;3827;49.928;8.548;2022-07-09T03:48:38;3.10;;;2.80;;
7571;SDS011;3827;49.928;8.548;2022-07-09T03:51:05;4.07;;;2.60;;
7571;SDS011;3827;49.928;8.548;2022-07-09T03:53:32;3.15;;;2.60;;
7571;SDS011;3827;49.928;8.548;2022-07-09T03:56:02;3.28;;;2.97;;
7571;SDS011;3827;49.928;8.548;2022-07-09T03:58:29;4.50;;;3.50;;
7571;SDS011;3827;49.928;8.548;2022-07-09T04:00:55;3.60;;;2.97;;
7571;SDS011;3827;49.928;8.548;2022-07-09T04:03:22;4.28;;;3.40;;
7571;SDS011;3827;49.928;8.548;2022-07-09T04:05:49;3.25;;;2.95;;
7571;SDS011;3827;49.928;8.548;2022-07-09T04:08:16;3.42;;;3.13;;
7571;SDS011;3827;49.928;8.548;2022-07-09T04:10:43;5.57;;;3.70;;
7571;SDS011;3827;49.928;8.548;2022-07-09T04:13:11;4.53;;;3.27;;
7571;SDS011;3827;49.928;8.548;2022-07-09T04:15:38;5.95;;;3.55;;
7571;SDS011;3827;49.928;8.548;2022-07-09T04:18:04;5.45;;;3.20;;
7571;SDS011;3827;49.928;8.548;2022-07-09T04:20:31;7.30;;;3.38;;
7571;SDS011;3827;49.928;8.548;2022-07-09T04:22:58;4.45;;;3.22;;
7571;SDS011;3827;49.928;8.548;2022-07-09T04:25:25;7.40;;;3.58;;
7571;SDS011;3827;49.928;8.548;2022-07-09T04:27:51;6.10;;;3.40;;
7571;SDS011;3827;49.928;8.548;2022-07-09T04:30:19;5.60;;;3.30;;
7571;SDS011;3827;49.928;8.548;2022-07-09T04:32:46;5.18;;;3.40;;
7571;SDS011;3827;49.928;8.548;2022-07-09T04:35:13;4.20;;;3.80;;
7571;SDS011;3827;49.928;8.548;2022-07-09T04:37:40;11.00;;;4.82;;
7571;SDS011;3827;49.928;8.548;2022-07-09T04:40:07;7.10;;;4.13;;
7571;SDS011;3827;49.928;8.548;2022-07-09T04:42:34;7.05;;;3.97;;
7571;SDS011;3827;49.928;8.548;2022-07-09T04:45:01;4.38;;;3.63;;
7571;SDS011;3827;49.928;8.548;2022-07-09T04:47:30;6.97;;;4.20;;
7571;SDS011;3827;49.928;8.548;2022-07-09T04:49:57;6.13;;;4.20;;
7571;SDS011;3827;49.928;8.548;2022-07-09T04:52:24;6.32;;;4.00;;
7571;SDS011;3827;49.928;8.548;2022-07-09T04:54:51;5.22;;;3.75;;
7571;SDS011;3827;49.928;8.548;2022-07-09T04:57:18;4.13;;;3.30;;
7571;SDS011;3827;49.928;8.548;2022-07-09T04:59:45;5.18;;;4.07;;
7571;SDS011;3827;49.928;8.548;2022-07-09T05:02:12;8.50;;;4.40;;
7571;SDS011;3827;49.928;8.548;2022-07-09T05:04:41;10.90;;;4.57;;
7571;SDS011;3827;49.928;8.548;2022-07-09T05:07:08;4.50;;;3.30;;
7571;SDS011;3827;49.928;8.548;2022-07-09T05:09:34;4.20;;;3.80;;
7571;SDS011;3827;49.928;8.548;2022-07-09T05:12:02;4.53;;;4.13;;
7571;SDS011;3827;49.928;8.548;2022-07-09T05:14:29;6.18;;;3.88;;
7571;SDS011;3827;49.928;8.548;2022-07-09T05:16:56;7.90;;;4.43;;
7571;SDS011;3827;49.928;8.548;2022-07-09T05:19:23;4.05;;;3.55;;
7571;SDS011;3827;49.928;8.548;2022-07-09T05:21:51;4.30;;;3.85;;
7571;SDS011;3827;49.928;8.548;2022-07-09T05:24:18;4.40;;;4.10;;
7571;SDS011;3827;49.928;8.548;2022-07-09T05:26:45;7.50;;;4.20;;
7571;SDS011;3827;49.928;8.548;2022-07-09T05:29:11;6.40;;;4.40;;
7571;SDS011;3827;49.928;8.548;2022-07-09T05:31:38;3.95;;;3.65;;
7571;SDS011;3827;49.928;8.548;2022-07-09T05:34:05;4.20;;;3.80;;
7571;SDS011;3827;49.928;8.548;2022-07-09T05:36:33;4.80;;;3.80;;
7571;SDS011;3827;49.928;8.548;2022-07-09T05:39:01;4.20;;;3.67;;
7571;SDS011;3827;49.928;8.548;2022-07-09T05:41:28;5.05;;;3.85;;
7571;SDS011;3827;49.928;8.548;2022-07-09T05:43:55;4.20;;;3.70;;
7571;SDS011;3827;49.928;8.548;2022-07-09T05:46:22;4.67;;;3.20;;
7571;SDS011;3827;49.928;8.548;2022-07-09T05:48:49;4.37;;;3.77;;
7571;SDS011;3827;49.928;8.548;2022-07-09T05:51:16;3.55;;;3.15;;
7571;SDS011;3827;49.928;8.548;2022-07-09T05:53:43;4.20;;;3.80;;
7571;SDS011;3827;49.928;8.548;2022-07-09T05:56:11;4.32;;;3.28;;
7571;SDS011;3827;49.928;8.548;2022-07-09T05:58:37;6.20;;;3.50;;
7571;SDS011;3827;49.928;8.548;2022-07-09T06:01:04;6.82;;;3.83;;
7571;SDS011;3827;49.928;8.548;2022-07-09T06:03:32;3.83;;;3.38;;
7571;SDS011;3827;49.928;8.548;2022-07-09T06:05:59;4.50;;;3.75;;
7571;SDS011;3827;49.928;8.548;2022-07-09T06:08:26;5.20;;;4.10;;
7571;SDS011;3827;49.928;8.548;2022-07-09T06:10:53;4.38;;;3.38;;
7571;SDS011;3827;49.928;8.548;2022-07-09T06:13:21;4.83;;;3.77;;
7571;SDS011;3827;49.928;8.548;2022-07-09T06:15:48;4.57;;;3.25;;
7571;SDS011;3827;49.928;8.548;2022-07-09T06:18:15;5.30;;;3.33;;
7571;SDS011;3827;49.928;8.548;2022-07-09T06:20:42;4.43;;;3.13;;
7571;SDS011;3827;49.928;8.548;2022-07-09T06:23:09;5.45;;;3.47;;
7571;SDS011;3827;49.928;8.548;2022-07-09T06:25:36;4.25;;;3.47;;
7571;SDS011;3827;49.928;8.548;2022-07-09T06:28:03;3.88;;;2.70;;
7571;SDS011;3827;49.928;8.548;2022-07-09T06:30:31;3.67;;;3.05;;
7571;SDS011;3827;49.928;8.548;2022-07-09T06:32:59;4.60;;;3.85;;
7571;SDS011;3827;49.928;8.548;2022-07-09T06:35:26;5.78;;;3.30;;
7571;SDS011;3827;49.928;8.548;2022-07-09T06:37:53;4.55;;;3.08;;
7571;SDS011;3827;49.928;8.548;2022-07-09T06:40:19;4.93;;;3.28;;
7571;SDS011;3827;49.928;8.548;2022-07-09T06:42:46;5.10;;;3.53;;
7571;SDS011;3827;49.928;8.548;2022-07-09T06:45:13;4.97;;;3.45;;
7571;SDS011;3827;49.928;8.548;2022-07-09T06:47:41;3.40;;;2.83;;
7571;SDS011;3827;49.928;8.548;2022-07-09T06:50:08;5.03;;;3.00;;
7571;SDS011;3827;49.928;8.548;2022-07-09T06:52:35;6.13;;;3.33;;
7571;SDS011;3827;49.928;8.548;2022-07-09T06:55:02;5.25;;;3.20;;
7571;SDS011;3827;49.928;8.548;2022-07-09T06:57:30;3.40;;;3.10;;
7571;SDS011;3827;49.928;8.548;2022-07-09T06:59:57;3.85;;;3.20;;
7571;SDS011;3827;49.928;8.548;2022-07-09T07:02:24;6.35;;;3.60;;
7571;SDS011;3827;49.928;8.548;2022-07-09T07:04:52;4.68;;;3.38;;
7571;SDS011;3827;49.928;8.548;2022-07-09T07:07:19;6.40;;;3.38;;
7571;SDS011;3827;49.928;8.548;2022-07-09T07:09:46;4.80;;;3.40;;
7571;SDS011;3827;49.928;8.548;2022-07-09T07:12:13;4.68;;;2.92;;
7571;SDS011;3827;49.928;8.548;2022-07-09T07:14:40;4.18;;;3.08;;
7571;SDS011;3827;49.928;8.548;2022-07-09T07:17:08;2.83;;;2.50;;
7571;SDS011;3827;49.928;8.548;2022-07-09T07:19:35;5.95;;;2.88;;
7571;SDS011;3827;49.928;8.548;2022-07-09T07:22:03;4.70;;;3.55;;
7571;SDS011;3827;49.928;8.548;2022-07-09T07:24:30;9.77;;;3.30;;
7571;SDS011;3827;49.928;8.548;2022-07-09T07:26:57;4.18;;;2.95;;
7571;SDS011;3827;49.928;8.548;2022-07-09T07:29:24;4.45;;;3.10;;
7571;SDS011;3827;49.928;8.548;2022-07-09T07:31:51;5.50;;;3.22;;
7571;SDS011;3827;49.928;8.548;2022-07-09T07:34:18;4.00;;;3.13;;
7571;SDS011;3827;49.928;8.548;2022-07-09T07:36:47;4.50;;;3.20;;
7571;SDS011;3827;49.928;8.548;2022-07-09T07:39:16;3.42;;;2.50;;
7571;SDS011;3827;49.928;8.548;2022-07-09T07:41:42;5.13;;;2.72;;
7571;SDS011;3827;49.928;8.548;2022-07-09T07:44:09;4.40;;;2.72;;
7571;SDS011;3827;49.928;8.548;2022-07-09T07:46:36;3.38;;;2.58;;
7571;SDS011;3827;49.928;8.548;2022-07-09T07:49:03;4.28;;;2.78;;
7571;SDS011;3827;49.928;8.548;2022-07-09T07:51:30;3.80;;;2.47;;
7571;SDS011;3827;49.928;8.548;2022-07-09T07:53:56;4.10;;;2.67;;
7571;SDS011;3827;49.928;8.548;2022-07-09T07:56:25;3.80;;;2.15;;
7571;SDS011;3827;49.928;8.548;2022-07-09T07:58:52;3.83;;;2.10;;
7571;SDS011;3827;49.928;8.548;2022-07-09T08:01:18;3.95;;;2.30;;
7571;SDS011;3827;49.928;8.548;2022-07-09T08:03:45;3.83;;;2.67;;
7571;SDS011;3827;49.928;8.548;2022-07-09T08:06:12;4.05;;;2.45;;
7571;SDS011;3827;49.928;8.548;2022-07-09T08:08:39;5.27;;;2.37;;
7571;SDS011;3827;49.928;8.548;2022-07-09T08:11:06;5.70;;;2.78;;
7571;SDS011;3827;49.928;8.548;2022-07-09T08:13:34;8.32;;;3.30;;
7571;SDS011;3827;49.928;8.548;2022-07-09T08:16:01;4.32;;;3.17;;
7571;SDS011;3827;49.928;8.548;2022-07-09T08:18:27;4.60;;;3.20;;
7571;SDS011;3827;49.928;8.548;2022-07-09T08:20:54;5.47;;;3.28;;
7571;SDS011;3827;49.928;8.548;2022-07-09T08:23:21;7.25;;;3.38;;
7571;SDS011;3827;49.928;8.548;2022-07-09T08:25:48;4.63;;;2.97;;
7571;SDS011;3827;49.928;8.548;2022-07-09T08:28:16;3.17;;;2.00;;
7571;SDS011;3827;49.928;8.548;2022-07-09T08:30:44;6.95;;;2.78;;
7571;SDS011;3827;49.928;8.548;2022-07-09T08:33:11;6.13;;;2.80;;
7571;SDS011;3827;49.928;8.548;2022-07-09T08:35:37;5.22;;;2.90;;
7571;SDS011;3827;49.928;8.548;2022-07-09T08:38:04;5.30;;;3.25;;
7571;SDS011;3827;49.928;8.548;2022-07-09T08:40:31;5.03;;;3.50;;
7571;SDS011;3827;49.928;8.548;2022-07-09T08:42:59;4.38;;;2.80;;
7571;SDS011;3827;49.928;8.548;2022-07-09T08:45:29;4.88;;;2.90;;
7571;SDS011;3827;49.928;8.548;2022-07-09T08:47:58;7.75;;;3.45;;
7571;SDS011;3827;49.928;8.548;2022-07-09T08:50:26;5.73;;;2.67;;
7571;SDS011;3827;49.928;8.548;2022-07-09T08:52:53;5.70;;;2.60;;
7571;SDS011;3827;49.928;8.548;2022-07-09T08:55:21;4.32;;;2.80;;
7571;SDS011;3827;49.928;8.548;2022-07-09T08:57:49;5.03;;;2.72;;
7571;SDS011;3827;49.928;8.548;2022-07-09T09:00:16;4.78;;;2.92;;
7571;SDS011;3827;49.928;8.548;2022-07-09T09:02:43;4.88;;;3.00;;
7571;SDS011;3827;49.928;8.548;2022-07-09T09:05:12;4.32;;;2.80;;
7571;SDS011;3827;49.928;8.548;2022-07-09T09:07:40;22.88;;;3.83;;
7571;SDS011;3827;49.928;8.548;2022-07-09T09:10:07;5.25;;;2.85;;
7571;SDS011;3827;49.928;8.548;2022-07-09T09:12:45;3.97;;;2.65;;
7571;SDS011;3827;49.928;8.548;2022-07-09T09:15:16;5.10;;;2.53;;
7571;SDS011;3827;49.928;8.548;2022-07-09T09:17:43;5.10;;;2.70;;
7571;SDS011;3827;49.928;8.548;2022-07-09T09:20:12;2.97;;;2.28;;
7571;SDS011;3827;49.928;8.548;2022-07-09T09:22:43;3.72;;;2.17;;
7571;SDS011;3827;49.928;8.548;2022-07-09T09:25:14;3.30;;;2.13;;
7571;SDS011;3827;49.928;8.548;2022-07-09T09:27:49;4.13;;;2.58;;
7571;SDS011;3827;49.928;8.548;2022-07-09T09:30:16;2.90;;;2.40;;
7571;SDS011;3827;49.928;8.548;2022-07-09T09:32:43;3.08;;;2.10;;
7571;SDS011;3827;49.928;8.548;2022-07-09T09:35:10;3.25;;;2.10;;
7571;SDS011;3827;49.928;8.548;2022-07-09T09:37:38;4.43;;;2.30;;
7571;SDS011;3827;49.928;8.548;2022-07-09T09:40:08;3.70;;;1.92;;
7571;SDS011;3827;49.928;8.548;2022-07-09T09:42:37;3.72;;;2.00;;
7571;SDS011;3827;49.928;8.548;2022-07-09T09:45:07;2.72;;;1.90;;
7571;SDS011;3827;49.928;8.548;2022-07-09T09:47:35;4.00;;;2.20;;
7571;SDS011;3827;49.928;8.548;2022-07-09T09:50:03;3.10;;;1.87;;
7571;SDS011;3827;49.928;8.548;2022-07-09T09:52:31;2.40;;;1.80;;
7571;SDS011;3827;49.928;8.548;2022-07-09T09:55:00;3.03;;;2.00;;
7571;SDS011;3827;49.928;8.548;2022-07-09T09:57:29;3.80;;;1.80;;
7571;SDS011;3827;49.928;8.548;2022-07-09T09:59:57;2.75;;;1.75;;
7571;SDS011;3827;49.928;8.548;2022-07-09T10:02:24;2.13;;;1.58;;
7571;SDS011;3827;49.928;8.548;2022-07-09T10:04:52;1.88;;;1.38;;
7571;SDS011;3827;49.928;8.548;2022-07-09T10:07:19;2.35;;;1.70;;
7571;SDS011;3827;49.928;8.548;2022-07-09T10:09:55;1.90;;;1.42;;
7571;SDS011;3827;49.928;8.548;2022-07-09T10:12:28;1.70;;;1.30;;
7571;SDS011;3827;49.928;8.548;2022-07-09T10:14:55;3.85;;;1.50;;
7571;SDS011;3827;49.928;8.548;2022-07-09T10:17:23;2.33;;;1.30;;
7571;SDS011;3827;49.928;8.548;2022-07-09T10:19:52;1.67;;;1.30;;
7571;SDS011;3827;49.928;8.548;2022-07-09T10:22:19;2.40;;;1.38;;
7571;SDS011;3827;49.928;8.548;2022-07-09T10:24:49;2.72;;;1.50;;
7571;SDS011;3827;49.928;8.548;2022-07-09T10:27:17;2.67;;;1.55;;
7571;SDS011;3827;49.928;8.548;2022-07-09T10:29:55;2.67;;;1.50;;
7571;SDS011;3827;49.928;8.548;2022-07-09T10:32:26;1.48;;;1.27;;
7571;SDS011;3827;49.928;8.548;2022-07-09T10:34:56;2.00;;;1.20;;
7571;SDS011;3827;49.928;8.548;2022-07-09T10:37:33;3.78;;;1.35;;
7571;SDS011;3827;49.928;8.548;2022-07-09T10:40:12;2.17;;;1.42;;
7571;SDS011;3827;49.928;8.548;2022-07-09T10:42:39;5.93;;;1.50;;
7571;SDS011;3827;49.928;8.548;2022-07-09T10:45:22;1.13;;;1.00;;
7571;SDS011;3827;49.928;8.548;2022-07-09T10:47:53;1.45;;;1.10;;
7571;SDS011;3827;49.928;8.548;2022-07-09T10:50:21;2.45;;;1.00;;
7571;SDS011;3827;49.928;8.548;2022-07-09T10:52:48;1.95;;;0.90;;
7571;SDS011;3827;49.928;8.548;2022-07-09T10:55:17;3.10;;;1.27;;
7571;SDS011;3827;49.928;8.548;2022-07-09T10:57:44;1.35;;;1.00;;
7571;SDS011;3827;49.928;8.548;2022-07-09T11:00:15;1.25;;;1.08;;
7571;SDS011;3827;49.928;8.548;2022-07-09T11:02:56;0.82;;;0.82;;
7571;SDS011;3827;49.928;8.548;2022-07-09T11:05:24;1.63;;;1.00;;
7571;SDS011;3827;49.928;8.548;2022-07-09T11:07:55;1.30;;;0.82;;
7571;SDS011;3827;49.928;8.548;2022-07-09T11:10:23;2.30;;;1.40;;
7571;SDS011;3827;49.928;8.548;2022-07-09T11:12:52;1.25;;;1.10;;
7571;SDS011;3827;49.928;8.548;2022-07-09T11:17:53;1.40;;;1.10;;
7571;SDS011;3827;49.928;8.548;2022-07-09T11:20:22;2.00;;;1.55;;
7571;SDS011;3827;49.928;8.548;2022-07-09T11:22:49;1.35;;;1.20;;
7571;SDS011;3827;49.928;8.548;2022-07-09T11:25:16;1.60;;;1.27;;
7571;SDS011;3827;49.928;8.548;2022-07-09T11:27:44;1.45;;;1.35;;
7571;SDS011;3827;49.928;8.548;2022-07-09T11:30:11;1.95;;;1.30;;
7571;SDS011;3827;49.928;8.548;2022-07-09T11:32:39;1.20;;;1.10;;
7571;SDS011;3827;49.928;8.548;2022-07-09T11:35:08;1.73;;;1.63;;
7571;SDS011;3827;49.928;8.548;2022-07-09T11:37:35;2.50;;;1.30;;
7571;SDS011;3827;49.928;8.548;2022-07-09T11:40:03;1.80;;;1.65;;
7571;SDS011;3827;49.928;8.548;2022-07-09T11:42:30;2.42;;;1.45;;
7571;SDS011;3827;49.928;8.548;2022-07-09T11:44:58;1.45;;;1.35;;
7571;SDS011;3827;49.928;8.548;2022-07-09T11:47:33;1.30;;;1.20;;
7571;SDS011;3827;49.928;8.548;2022-07-09T11:50:09;1.63;;;1.33;;
7571;SDS011;3827;49.928;8.548;2022-07-09T11:52:42;3.03;;;1.50;;
7571;SDS011;3827;49.928;8.548;2022-07-09T11:55:11;1.98;;;1.40;;
7571;SDS011;3827;49.928;8.548;2022-07-09T11:57:40;2.20;;;1.45;;
7571;SDS011;3827;49.928;8.548;2022-07-09T12:00:20;2.97;;;1.50;;
7571;SDS011;3827;49.928;8.548;2022-07-09T12:02:47;2.78;;;1.67;;
7571;SDS011;3827;49.928;8.548;2022-07-09T12:05:24;1.40;;;1.30;;
7571;SDS011;3827;49.928;8.548;2022-07-09T12:07:57;1.35;;;1.25;;
7571;SDS011;3827;49.928;8.548;2022-07-09T12:10:25;1.42;;;1.27;;
7571;SDS011;3827;49.928;8.548;2022-07-09T12:12:53;2.10;;;1.25;;
7571;SDS011;3827;49.928;8.548;2022-07-09T12:15:22;4.15;;;1.27;;
7571;SDS011;3827;49.928;8.548;2022-07-09T12:17:52;2.58;;;1.10;;
7571;SDS011;3827;49.928;8.548;2022-07-09T12:20:21;2.13;;;1.42;;
7571;SDS011;3827;49.928;8.548;2022-07-09T12:22:49;1.95;;;1.25;;
7571;SDS011;3827;49.928;8.548;2022-07-09T12:25:17;1.25;;;1.15;;
7571;SDS011;3827;49.928;8.548;2022-07-09T12:27:44;2.38;;;1.25;;
7571;SDS011;3827;49.928;8.548;2022-07-09T12:30:11;2.28;;;1.52;;
7571;SDS011;3827;49.928;8.548;2022-07-09T12:32:38;1.10;;;1.00;;
7571;SDS011;3827;49.928;8.548;2022-07-09T12:35:06;1.60;;;1.40;;
7571;SDS011;3827;49.928;8.548;2022-07-09T12:37:35;2.38;;;1.50;;
7571;SDS011;3827;49.928;8.548;2022-07-09T12:40:04;2.03;;;1.30;;
7571;SDS011;3827;49.928;8.548;2022-07-09T12:42:32;1.98;;;1.27;;
7571;SDS011;3827;49.928;8.548;2022-07-09T12:44:59;2.10;;;1.38;;
7571;SDS011;3827;49.928;8.548;2022-07-09T12:47:26;2.38;;;1.15;;
7571;SDS011;3827;49.928;8.548;2022-07-09T12:49:53;1.67;;;1.20;;
7571;SDS011;3827;49.928;8.548;2022-07-09T12:52:19;3.60;;;1.38;;
7571;SDS011;3827;49.928;8.548;2022-07-09T12:54:48;2.30;;;1.38;;
7571;SDS011;3827;49.928;8.548;2022-07-09T12:57:14;2.83;;;1.43;;
7571;SDS011;3827;49.928;8.548;2022-07-09T12:59:41;3.08;;;1.20;;
7571;SDS011;3827;49.928;8.548;2022-07-09T13:02:08;1.90;;;1.40;;
7571;SDS011;3827;49.928;8.548;2022-07-09T13:04:36;1.90;;;1.42;;
7571;SDS011;3827;49.928;8.548;2022-07-09T13:07:03;3.73;;;1.40;;
7571;SDS011;3827;49.928;8.548;2022-07-09T13:09:29;1.10;;;1.00;;
7571;SDS011;3827;49.928;8.548;2022-07-09T13:11:58;1.33;;;1.23;;
7571;SDS011;3827;49.928;8.548;2022-07-09T13:14:25;2.70;;;1.20;;
7571;SDS011;3827;49.928;8.548;2022-07-09T13:16:52;2.70;;;1.30;;
7571;SDS011;3827;49.928;8.548;2022-07-09T13:19:19;1.65;;;1.27;;
7571;SDS011;3827;49.928;8.548;2022-07-09T13:21:45;2.10;;;1.25;;
7571;SDS011;3827;49.928;8.548;2022-07-09T13:24:12;1.20;;;1.10;;
7571;SDS011;3827;49.928;8.548;2022-07-09T13:26:40;1.20;;;1.10;;
7571;SDS011;3827;49.928;8.548;2022-07-09T13:29:11;1.70;;;1.40;;
7571;SDS011;3827;49.928;8.548;2022-07-09T13:31:37;2.15;;;1.63;;
7571;SDS011;3827;49.928;8.548;2022-07-09T13:34:04;1.00;;;1.00;;
7571;SDS011;3827;49.928;8.548;2022-07-09T13:36:31;1.10;;;1.00;;
7571;SDS011;3827;49.928;8.548;2022-07-09T13:38:58;1.10;;;1.00;;
7571;SDS011;3827;49.928;8.548;2022-07-09T13:41:25;1.33;;;0.90;;
7571;SDS011;3827;49.928;8.548;2022-07-09T13:43:52;1.48;;;1.13;;
7571;SDS011;3827;49.928;8.548;2022-07-09T13:46:20;1.92;;;1.10;;
7571;SDS011;3827;49.928;8.548;2022-07-09T13:48:47;1.50;;;0.90;;
7571;SDS011;3827;49.928;8.548;2022-07-09T13:51:14;1.10;;;1.10;;
7571;SDS011;3827;49.928;8.548;2022-07-09T13:53:41;13.55;;;1.80;;
7571;SDS011;3827;49.928;8.548;2022-07-09T13:56:08;2.10;;;1.10;;
7571;SDS011;3827;49.928;8.548;2022-07-09T13:58:35;1.35;;;1.05;;
7571;SDS011;3827;49.928;8.548;2022-07-09T14:01:02;1.10;;;1.00;;
7571;SDS011;3827;49.928;8.548;2022-07-09T14:03:30;1.90;;;1.13;;
7571;SDS011;3827;49.928;8.548;2022-07-09T14:05:57;1.52;;;1.15;;
7571;SDS011;3827;49.928;8.548;2022-07-09T14:08:24;2.75;;;1.10;;
7571;SDS011;3827;49.928;8.548;2022-07-09T14:10:52;1.27;;;1.17;;
7571;SDS011;3827;49.928;8.548;2022-07-09T14:13:23;1.30;;;1.20;;
7571;SDS011;3827;49.928;8.548;2022-07-09T14:15:50;1.10;;;1.00;;
7571;SDS011;3827;49.928;8.548;2022-07-09T14:18:19;1.52;;;1.00;;
7571;SDS011;3827;49.928;8.548;2022-07-09T14:20:47;1.10;;;1.00;;
7571;SDS011;3827;49.928;8.548;2022-07-09T14:23:14;2.03;;;1.20;;
7571;SDS011;3827;49.928;8.548;2022-07-09T14:25:41;1.42;;;1.20;;
7571;SDS011;3827;49.928;8.548;2022-07-09T14:28:08;1.20;;;1.10;;
7571;SDS011;3827;49.928;8.548;2022-07-09T14:30:35;1.33;;;1.23;;
7571;SDS011;3827;49.928;8.548;2022-07-09T14:33:02;1.73;;;1.20;;
7571;SDS011;3827;49.928;8.548;2022-07-09T14:35:28;2.42;;;1.08;;
7571;SDS011;3827;49.928;8.548;2022-07-09T14:37:57;1.38;;;1.27;;
7571;SDS011;3827;49.928;8.548;2022-07-09T14:40:24;2.80;;;1.50;;
7571;SDS011;3827;49.928;8.548;2022-07-09T14:42:51;1.30;;;1.20;;
7571;SDS011;3827;49.928;8.548;2022-07-09T14:45:18;0.90;;;0.90;;
7571;SDS011;3827;49.928;8.548;2022-07-09T14:47:48;1.30;;;1.20;;
7571;SDS011;3827;49.928;8.548;2022-07-09T14:50:15;3.47;;;1.20;;
7571;SDS011;3827;49.928;8.548;2022-07-09T14:52:43;2.28;;;1.30;;
7571;SDS011;3827;49.928;8.548;2022-07-09T14:55:11;2.20;;;1.35;;
7571;SDS011;3827;49.928;8.548;2022-07-09T14:57:38;2.20;;;1.30;;
7571;SDS011;3827;49.928;8.548;2022-07-09T15:00:06;2.25;;;1.38;;
7571;SDS011;3827;49.928;8.548;2022-07-09T15:02:33;4.27;;;1.20;;
7571;SDS011;3827;49.928;8.548;2022-07-09T15:05:00;1.27;;;1.17;;
7571;SDS011;3827;49.928;8.548;2022-07-09T15:07:27;1.15;;;1.15;;
7571;SDS011;3827;49.928;8.548;2022-07-09T15:09:54;3.30;;;1.35;;
7571;SDS011;3827;49.928;8.548;2022-07-09T15:12:22;2.45;;;1.40;;
7571;SDS011;3827;49.928;8.548;2022-07-09T15:14:49;1.35;;;1.20;;
7571;SDS011;3827;49.928;8.548;2022-07-09T15:17:16;2.47;;;1.33;;
7571;SDS011;3827;49.928;8.548;2022-07-09T15:19:42;1.50;;;1.30;;